Time;durP1;ratioP1;P1;durP2;ratioP2;P2;SDS_P1;SDS_P2;PMS_P1;PMS_P2;Temp;Humidity;BMP_temperature;BMP_pressure;BME280_temperature;BME280_humidity;BME280_pressure;Samples;Min_cycle;Max_cycle;Signal;HPM_P1;HPM_P2
2021/12/12 00:00:32;;;;;;;16.30;11.30;;;;;;;;;;5104624;28;20019;-65
2021/12/12 00:03:05;;;;;;;16.15;10.50;;;;;;;;;;5108270;28;20039;-65
2021/12/12 00:05:35;;;;;;;16.30;11.30;;;;;;;;;;5130555;27;20118;-65
2021/12/12 00:08:01;;;;;;;17.50;11.50;;;;;;;;;;5124241;27;20023;-65
2021/12/12 00:10:28;;;;;;;17.57;11.33;;;;;;;;;;5127837;28;20056;-65
2021/12/12 00:12:55;;;;;;;18.50;12.37;;;;;;;;;;5131391;28;20357;-65
2021/12/12 00:15:21;;;;;;;16.40;10.90;;;;;;;;;;5113923;28;20050;-65
2021/12/12 00:17:47;;;;;;;18.77;12.17;;;;;;;;;;5128469;28;20455;-65
2021/12/12 00:20:13;;;;;;;17.33;10.70;;;;;;;;;;5128041;27;20023;-65
2021/12/12 00:22:39;;;;;;;17.90;11.23;;;;;;;;;;5129510;27;20019;-65
2021/12/12 00:25:06;;;;;;;17.83;11.27;;;;;;;;;;5132867;27;20023;-64
2021/12/12 00:27:31;;;;;;;20.67;11.47;;;;;;;;;;5134061;27;20031;-64
2021/12/12 00:30:02;;;;;;;18.87;11.70;;;;;;;;;;5110493;27;20031;-66
2021/12/12 00:32:27;;;;;;;18.50;11.17;;;;;;;;;;5096887;27;20117;-69
2021/12/12 00:34:54;;;;;;;20.50;12.60;;;;;;;;;;5135440;27;20126;-65
2021/12/12 00:37:20;;;;;;;19.80;12.07;;;;;;;;;;5114076;27;20023;-66
2021/12/12 00:39:50;;;;;;;19.47;11.90;;;;;;;;;;5138136;27;20246;-65
2021/12/12 00:42:17;;;;;;;19.60;13.10;;;;;;;;;;5120366;27;20022;-65
2021/12/12 00:44:44;;;;;;;20.97;12.87;;;;;;;;;;5118493;27;20023;-65
2021/12/12 00:47:10;;;;;;;18.77;11.93;;;;;;;;;;5114083;27;20912;-64
2021/12/12 00:49:36;;;;;;;18.47;11.97;;;;;;;;;;5133931;27;20023;-64
2021/12/12 00:52:02;;;;;;;18.67;11.90;;;;;;;;;;5115171;27;20034;-64
2021/12/12 00:54:31;;;;;;;19.80;12.37;;;;;;;;;;5095415;28;20031;-66
2021/12/12 00:56:57;;;;;;;20.27;12.30;;;;;;;;;;5116141;27;20016;-67
2021/12/12 00:59:22;;;;;;;20.03;12.13;;;;;;;;;;5107985;27;20387;-67
2021/12/12 01:01:50;;;;;;;20.50;13.23;;;;;;;;;;5117235;27;20019;-66
2021/12/12 01:04:17;;;;;;;20.40;13.07;;;;;;;;;;5119001;27;20529;-68
2021/12/12 01:06:44;;;;;;;23.40;13.23;;;;;;;;;;5112643;27;20015;-67
2021/12/12 01:09:12;;;;;;;24.70;14.37;;;;;;;;;;5134750;27;20038;-66
2021/12/12 01:11:39;;;;;;;22.20;13.40;;;;;;;;;;5116124;27;20109;-66
2021/12/12 01:14:07;;;;;;;23.50;13.67;;;;;;;;;;5133568;27;20049;-66
2021/12/12 01:16:36;;;;;;;23.60;13.93;;;;;;;;;;5134434;27;20026;-66
2021/12/12 01:19:09;;;;;;;21.43;13.23;;;;;;;;;;5115301;27;20511;-67
2021/12/12 01:21:36;;;;;;;23.00;13.93;;;;;;;;;;5132533;27;20015;-66
2021/12/12 01:24:05;;;;;;;22.27;12.93;;;;;;;;;;5134601;27;20101;-67
2021/12/12 01:26:31;;;;;;;21.67;13.67;;;;;;;;;;5131048;27;20011;-66
2021/12/12 01:28:57;;;;;;;24.77;14.03;;;;;;;;;;5091973;27;20532;-67
2021/12/12 01:31:25;;;;;;;22.50;14.07;;;;;;;;;;5111170;27;20073;-67
2021/12/12 01:33:58;;;;;;;21.47;13.73;;;;;;;;;;5113130;27;20025;-67
2021/12/12 01:36:30;;;;;;;21.97;13.47;;;;;;;;;;5117461;27;20019;-66
2021/12/12 01:39:00;;;;;;;19.43;13.13;;;;;;;;;;5117932;27;20130;-67
2021/12/12 01:41:28;;;;;;;24.60;14.57;;;;;;;;;;5113551;27;20356;-66
2021/12/12 01:43:55;;;;;;;23.00;14.97;;;;;;;;;;5132936;27;20080;-66
2021/12/12 01:46:28;;;;;;;22.83;14.33;;;;;;;;;;5130115;27;20020;-67
2021/12/12 01:49:02;;;;;;;26.03;15.60;;;;;;;;;;5114918;27;20034;-66
2021/12/12 01:51:28;;;;;;;29.02;15.32;;;;;;;;;;5130516;27;20015;-66
2021/12/12 01:53:55;;;;;;;24.60;15.33;;;;;;;;;;5115080;27;20031;-66
2021/12/12 01:56:27;;;;;;;22.40;13.83;;;;;;;;;;5133018;27;20024;-67
2021/12/12 01:58:54;;;;;;;24.23;14.23;;;;;;;;;;5112761;27;20479;-66
2021/12/12 02:01:22;;;;;;;21.33;14.33;;;;;;;;;;5110816;27;20015;-67
2021/12/12 02:03:50;;;;;;;23.33;14.27;;;;;;;;;;5129400;27;20036;-67
2021/12/12 02:06:17;;;;;;;21.83;13.67;;;;;;;;;;5133449;27;20386;-66
2021/12/12 02:08:42;;;;;;;23.67;15.60;;;;;;;;;;5131896;27;20490;-67
2021/12/12 02:11:10;;;;;;;24.03;15.03;;;;;;;;;;5132812;27;20019;-67
2021/12/12 02:13:39;;;;;;;22.57;14.97;;;;;;;;;;5111314;27;20122;-66
2021/12/12 02:16:06;;;;;;;24.20;14.17;;;;;;;;;;5129146;27;20105;-66
2021/12/12 02:18:35;;;;;;;21.33;14.47;;;;;;;;;;5098303;27;20026;-67
2021/12/12 02:21:24;;;;;;;24.37;15.10;;;;;;;;;;5114024;27;20023;-66
2021/12/12 02:37:25;;;;;;;25.80;14.87;;;;;;;;;;5115971;27;20521;-67
2021/12/12 02:39:50;;;;;;;23.77;16.20;;;;;;;;;;5112852;27;20035;-66
2021/12/12 02:42:18;;;;;;;25.17;14.73;;;;;;;;;;5131328;27;20027;-67
2021/12/12 02:44:43;;;;;;;24.03;14.63;;;;;;;;;;5129828;27;20047;-67
2021/12/12 02:47:13;;;;;;;24.20;14.97;;;;;;;;;;5111717;27;20023;-67
2021/12/12 02:49:54;;;;;;;25.27;14.73;;;;;;;;;;5114508;27;20464;-66
2021/12/12 02:52:21;;;;;;;21.90;14.50;;;;;;;;;;5108209;27;20127;-67
2021/12/12 02:54:46;;;;;;;29.07;16.00;;;;;;;;;;5113152;27;20393;-67
2021/12/12 02:57:12;;;;;;;23.87;15.13;;;;;;;;;;5131802;27;20019;-67
2021/12/12 02:59:38;;;;;;;20.90;13.63;;;;;;;;;;5111003;27;20023;-66
2021/12/12 03:02:06;;;;;;;24.87;15.07;;;;;;;;;;5107664;27;20043;-66
2021/12/12 03:04:31;;;;;;;22.47;14.83;;;;;;;;;;5111511;27;20472;-66
2021/12/12 03:06:57;;;;;;;22.63;14.97;;;;;;;;;;5111920;28;20032;-66
2021/12/12 03:09:25;;;;;;;25.13;15.90;;;;;;;;;;5111506;28;20430;-66
2021/12/12 03:11:53;;;;;;;25.13;15.33;;;;;;;;;;5111158;28;20491;-66
2021/12/12 03:14:19;;;;;;;23.80;14.93;;;;;;;;;;5110592;28;20111;-66
2021/12/12 03:16:45;;;;;;;24.17;15.47;;;;;;;;;;5109011;28;20060;-66
2021/12/12 03:19:10;;;;;;;25.50;15.27;;;;;;;;;;5112893;28;20027;-66
2021/12/12 03:21:42;;;;;;;26.63;15.93;;;;;;;;;;5109884;28;20475;-66
2021/12/12 03:24:13;;;;;;;26.37;15.93;;;;;;;;;;5110321;28;20475;-66
2021/12/12 03:26:41;;;;;;;25.20;15.80;;;;;;;;;;5105923;28;20019;-66
2021/12/12 03:29:06;;;;;;;24.40;16.20;;;;;;;;;;5093776;28;20027;-66
2021/12/12 03:31:34;;;;;;;26.97;16.43;;;;;;;;;;5108359;28;20393;-66
2021/12/12 03:34:00;;;;;;;28.80;16.63;;;;;;;;;;5106757;28;20016;-66
2021/12/12 03:36:26;;;;;;;24.17;15.77;;;;;;;;;;5110154;28;20024;-66
2021/12/12 03:38:54;;;;;;;24.83;15.90;;;;;;;;;;5089896;28;20456;-66
2021/12/12 03:41:22;;;;;;;22.73;15.23;;;;;;;;;;5110162;28;20024;-66
2021/12/12 03:43:52;;;;;;;23.43;15.20;;;;;;;;;;5110801;28;20049;-66
2021/12/12 03:46:17;;;;;;;24.77;16.23;;;;;;;;;;5107264;28;20491;-66
2021/12/12 03:48:43;;;;;;;25.60;15.73;;;;;;;;;;5109164;28;20051;-66
2021/12/12 03:51:09;;;;;;;25.73;15.70;;;;;;;;;;5091999;28;20031;-66
2021/12/12 03:53:36;;;;;;;24.83;14.70;;;;;;;;;;5109496;28;20084;-66
2021/12/12 03:56:02;;;;;;;22.57;15.17;;;;;;;;;;5104222;28;20032;-66
2021/12/12 03:58:28;;;;;;;25.50;15.23;;;;;;;;;;5102147;28;20181;-66
2021/12/12 04:00:55;;;;;;;23.83;15.90;;;;;;;;;;5109836;28;20024;-66
2021/12/12 04:03:20;;;;;;;25.97;15.03;;;;;;;;;;5121489;27;20050;-67
2021/12/12 04:05:47;;;;;;;21.50;13.97;;;;;;;;;;5134546;27;20110;-67
2021/12/12 04:08:12;;;;;;;21.53;13.70;;;;;;;;;;5133564;27;20027;-66
2021/12/12 04:10:38;;;;;;;21.30;13.27;;;;;;;;;;5126799;27;20019;-67
2021/12/12 04:13:03;;;;;;;19.50;13.07;;;;;;;;;;5112677;28;20035;-67
2021/12/12 04:15:28;;;;;;;22.77;13.43;;;;;;;;;;5118078;27;20073;-67
2021/12/12 04:17:53;;;;;;;20.97;12.87;;;;;;;;;;5115556;27;20023;-66
2021/12/12 04:20:39;;;;;;;22.80;13.60;;;;;;;;;;5134730;27;20076;-67
2021/12/12 04:23:13;;;;;;;21.95;14.07;;;;;;;;;;5134360;27;20031;-66
2021/12/12 04:25:38;;;;;;;19.23;12.83;;;;;;;;;;5115570;27;20046;-67
2021/12/12 04:28:04;;;;;;;19.60;12.50;;;;;;;;;;5113876;28;20059;-67
2021/12/12 04:30:29;;;;;;;18.53;11.63;;;;;;;;;;5111765;27;20110;-67
2021/12/12 04:32:54;;;;;;;17.87;11.50;;;;;;;;;;5133994;27;20364;-67
2021/12/12 04:35:22;;;;;;;16.53;11.67;;;;;;;;;;5133150;27;20023;-67
2021/12/12 04:37:48;;;;;;;17.43;11.23;;;;;;;;;;5133164;27;20046;-67
2021/12/12 04:40:18;;;;;;;17.50;11.07;;;;;;;;;;5129466;27;20486;-67
2021/12/12 04:42:45;;;;;;;17.27;11.00;;;;;;;;;;5134583;27;20015;-66
2021/12/12 04:45:26;;;;;;;16.47;11.87;;;;;;;;;;5135186;27;20023;-67
2021/12/12 04:50:49;;;;;;;18.17;10.73;;;;;;;;;;5133700;27;20083;-67
2021/12/12 04:53:29;;;;;;;15.73;10.80;;;;;;;;;;5116543;27;20076;-67
2021/12/12 04:56:00;;;;;;;16.30;10.90;;;;;;;;;;5135764;27;20023;-66
2021/12/12 04:58:34;;;;;;;16.30;11.70;;;;;;;;;;5120955;27;20033;-66
2021/12/12 05:01:18;;;;;;;18.40;10.98;;;;;;;;;;5127312;27;20526;-66
2021/12/12 05:04:19;;;;;;;17.50;11.70;;;;;;;;;;5110496;28;20051;-66
2021/12/12 05:07:04;;;;;;;15.97;10.10;;;;;;;;;;5056116;28;20035;-66
2021/12/12 05:09:32;;;;;;;15.77;10.77;;;;;;;;;;5049688;28;20534;-66
2021/12/12 05:12:07;;;;;;;17.50;10.93;;;;;;;;;;5048380;28;20036;-66
2021/12/12 05:14:35;;;;;;;17.52;10.57;;;;;;;;;;5049823;28;20033;-67
2021/12/12 05:17:06;;;;;;;18.67;10.67;;;;;;;;;;5054670;28;20111;-67
2021/12/12 05:19:32;;;;;;;16.73;10.63;;;;;;;;;;5051468;28;20032;-65
2021/12/12 05:22:01;;;;;;;17.97;11.40;;;;;;;;;;5038321;28;20039;-68
2021/12/12 05:24:28;;;;;;;15.10;10.30;;;;;;;;;;5050945;28;20060;-68
2021/12/12 05:26:55;;;;;;;15.33;10.03;;;;;;;;;;5051980;28;20381;-68
2021/12/12 05:29:22;;;;;;;13.67;8.97;;;;;;;;;;5033716;28;20024;-65
2021/12/12 05:31:49;;;;;;;15.23;10.00;;;;;;;;;;5031277;28;20020;-66
2021/12/12 05:34:16;;;;;;;14.53;9.90;;;;;;;;;;5048121;28;20036;-66
2021/12/12 05:36:42;;;;;;;16.23;9.23;;;;;;;;;;5050327;28;20025;-66
2021/12/12 05:39:07;;;;;;;15.13;9.00;;;;;;;;;;5031775;28;20029;-66
2021/12/12 05:41:33;;;;;;;15.57;9.20;;;;;;;;;;5102863;27;20051;-66
2021/12/12 05:44:01;;;;;;;12.10;8.00;;;;;;;;;;5133875;27;20069;-66
2021/12/12 05:46:26;;;;;;;15.00;9.57;;;;;;;;;;5133288;27;20101;-66
2021/12/12 05:48:53;;;;;;;15.00;9.27;;;;;;;;;;5132618;27;20110;-66
2021/12/12 05:51:19;;;;;;;12.73;8.23;;;;;;;;;;5112000;27;20019;-66
2021/12/12 05:53:44;;;;;;;14.03;9.07;;;;;;;;;;5133732;27;20032;-66
2021/12/12 05:56:09;;;;;;;13.07;8.87;;;;;;;;;;5128395;27;20037;-66
2021/12/12 05:58:35;;;;;;;12.90;8.60;;;;;;;;;;5132078;27;20063;-66
2021/12/12 06:01:06;;;;;;;12.80;8.70;;;;;;;;;;5128361;27;20023;-66
2021/12/12 06:03:33;;;;;;;11.60;7.67;;;;;;;;;;5114391;27;20039;-66
2021/12/12 06:05:59;;;;;;;12.77;7.97;;;;;;;;;;5112668;27;20099;-66
2021/12/12 06:08:25;;;;;;;13.30;9.07;;;;;;;;;;5130244;27;20056;-66
2021/12/12 06:10:52;;;;;;;12.30;8.17;;;;;;;;;;5131699;27;20020;-66
2021/12/12 06:13:18;;;;;;;12.57;8.07;;;;;;;;;;5131389;27;20123;-66
2021/12/12 06:15:45;;;;;;;12.83;8.13;;;;;;;;;;5130529;27;20095;-66
2021/12/12 06:18:11;;;;;;;11.80;7.80;;;;;;;;;;5113446;27;20040;-66
2021/12/12 06:20:37;;;;;;;13.20;7.77;;;;;;;;;;5131677;27;20031;-66
2021/12/12 06:23:02;;;;;;;14.13;8.83;;;;;;;;;;5121547;27;20026;-65
2021/12/12 06:25:28;;;;;;;12.33;9.00;;;;;;;;;;5111528;27;20053;-68
2021/12/12 06:27:53;;;;;;;11.93;8.07;;;;;;;;;;5096395;27;20083;-67
2021/12/12 06:30:20;;;;;;;12.00;8.37;;;;;;;;;;5132835;27;20049;-66
2021/12/12 06:32:46;;;;;;;14.73;9.30;;;;;;;;;;5129431;27;20045;-67
2021/12/12 06:35:12;;;;;;;13.53;8.83;;;;;;;;;;5132052;27;20051;-66
2021/12/12 06:37:39;;;;;;;12.30;7.77;;;;;;;;;;5113175;27;20054;-67
2021/12/12 06:40:05;;;;;;;12.80;9.37;;;;;;;;;;5124313;27;20038;-67
2021/12/12 06:42:31;;;;;;;12.17;8.33;;;;;;;;;;5104273;27;20026;-67
2021/12/12 06:44:56;;;;;;;12.10;7.37;;;;;;;;;;5106368;27;20031;-67
2021/12/12 06:47:21;;;;;;;13.77;8.23;;;;;;;;;;5108891;27;20059;-66
2021/12/12 06:49:46;;;;;;;13.47;8.10;;;;;;;;;;5087703;27;20131;-67
2021/12/12 06:52:13;;;;;;;11.63;7.73;;;;;;;;;;5124376;27;20023;-67
2021/12/12 06:54:39;;;;;;;13.43;8.33;;;;;;;;;;5123215;27;20090;-67
2021/12/12 06:57:06;;;;;;;11.10;7.60;;;;;;;;;;5123542;27;20560;-67
2021/12/12 06:59:33;;;;;;;14.60;9.37;;;;;;;;;;5123090;27;20440;-67
2021/12/12 07:01:59;;;;;;;11.30;7.67;;;;;;;;;;5126155;27;20035;-67
2021/12/12 07:04:25;;;;;;;13.40;8.90;;;;;;;;;;5114216;27;20019;-67
2021/12/12 07:06:53;;;;;;;12.13;7.93;;;;;;;;;;5114412;27;20463;-67
2021/12/12 07:09:18;;;;;;;13.43;8.03;;;;;;;;;;5131960;27;20015;-67
2021/12/12 07:11:45;;;;;;;14.17;8.37;;;;;;;;;;5113622;27;20031;-66
2021/12/12 07:14:11;;;;;;;12.70;7.97;;;;;;;;;;5131859;27;20015;-66
2021/12/12 07:16:37;;;;;;;10.50;7.70;;;;;;;;;;5132792;27;20046;-67
2021/12/12 07:19:03;;;;;;;12.37;7.60;;;;;;;;;;5131873;27;20042;-66
2021/12/12 07:21:30;;;;;;;13.23;7.97;;;;;;;;;;5130177;27;20068;-66
2021/12/12 07:23:57;;;;;;;11.93;7.60;;;;;;;;;;5131464;27;20471;-67
2021/12/12 07:26:24;;;;;;;12.33;8.40;;;;;;;;;;5131706;27;20023;-66
2021/12/12 07:28:51;;;;;;;12.40;8.20;;;;;;;;;;5111876;28;20019;-66
2021/12/12 07:31:19;;;;;;;13.53;9.30;;;;;;;;;;5110997;28;20474;-66
2021/12/12 07:33:45;;;;;;;13.03;9.37;;;;;;;;;;5113330;27;20030;-66
2021/12/12 07:36:11;;;;;;;12.83;9.07;;;;;;;;;;5111882;28;20023;-66
2021/12/12 07:38:37;;;;;;;12.03;8.00;;;;;;;;;;5131736;28;20138;-66
2021/12/12 07:41:03;;;;;;;13.03;8.33;;;;;;;;;;5112371;28;20028;-65
2021/12/12 07:43:29;;;;;;;14.70;8.20;;;;;;;;;;5130614;28;20425;-66
2021/12/12 07:45:55;;;;;;;13.00;7.97;;;;;;;;;;5131431;28;20038;-66
2021/12/12 07:48:20;;;;;;;12.93;7.67;;;;;;;;;;5112528;28;20027;-66
2021/12/12 07:50:46;;;;;;;12.03;7.50;;;;;;;;;;5095840;28;20067;-66
2021/12/12 07:53:11;;;;;;;12.63;7.47;;;;;;;;;;5095606;28;20083;-66
2021/12/12 07:55:37;;;;;;;12.07;7.70;;;;;;;;;;5131658;28;20023;-66
2021/12/12 07:58:04;;;;;;;12.07;7.67;;;;;;;;;;5098334;28;20453;-66
2021/12/12 08:00:30;;;;;;;10.20;7.57;;;;;;;;;;5107529;28;20027;-65
2021/12/12 08:02:55;;;;;;;12.20;7.43;;;;;;;;;;5112806;28;21266;-66
2021/12/12 08:05:21;;;;;;;10.70;7.37;;;;;;;;;;5130882;28;20368;-66
2021/12/12 08:07:46;;;;;;;10.53;6.97;;;;;;;;;;5112112;28;20038;-66
2021/12/12 08:10:14;;;;;;;11.73;7.37;;;;;;;;;;5130614;28;20030;-66
2021/12/12 08:12:40;;;;;;;10.20;6.63;;;;;;;;;;5131629;28;20118;-66
2021/12/12 08:15:07;;;;;;;10.60;6.17;;;;;;;;;;5131050;28;20044;-65
2021/12/12 08:17:32;;;;;;;9.07;6.77;;;;;;;;;;5130662;28;20023;-66
2021/12/12 08:19:58;;;;;;;10.00;6.80;;;;;;;;;;5127063;28;20442;-66
2021/12/12 08:22:24;;;;;;;9.93;6.63;;;;;;;;;;5095983;28;20584;-66
2021/12/12 08:24:49;;;;;;;11.10;7.40;;;;;;;;;;5114584;28;20031;-66
2021/12/12 08:27:15;;;;;;;11.80;7.27;;;;;;;;;;5094939;28;20039;-67
2021/12/12 08:29:41;;;;;;;10.40;6.80;;;;;;;;;;5102442;28;20027;-67
2021/12/12 08:32:08;;;;;;;10.77;6.83;;;;;;;;;;5112685;28;20835;-67
2021/12/12 08:34:33;;;;;;;12.00;6.90;;;;;;;;;;5112970;28;20031;-67
2021/12/12 08:36:58;;;;;;;11.77;7.73;;;;;;;;;;5112929;28;20080;-70
2021/12/12 08:39:25;;;;;;;10.43;7.17;;;;;;;;;;5115972;28;20027;-66
2021/12/12 08:41:51;;;;;;;11.10;7.27;;;;;;;;;;5131275;28;20019;-67
2021/12/12 08:44:17;;;;;;;9.40;6.97;;;;;;;;;;5095873;27;20083;-66
2021/12/12 08:46:44;;;;;;;9.23;7.00;;;;;;;;;;5135213;27;20015;-68
2021/12/12 08:49:11;;;;;;;11.87;7.33;;;;;;;;;;5133969;27;20054;-67
2021/12/12 08:51:41;;;;;;;12.00;7.83;;;;;;;;;;5115135;27;20019;-66
2021/12/12 08:54:15;;;;;;;11.57;8.03;;;;;;;;;;5134589;27;20041;-67
2021/12/12 08:56:48;;;;;;;9.40;7.00;;;;;;;;;;5134649;27;20486;-67
2021/12/12 08:59:18;;;;;;;10.27;7.37;;;;;;;;;;5130349;27;20495;-67
2021/12/12 09:01:44;;;;;;;10.53;6.77;;;;;;;;;;5124612;27;20015;-67
2021/12/12 09:04:10;;;;;;;12.33;8.37;;;;;;;;;;5107283;27;20030;-66
2021/12/12 09:06:53;;;;;;;10.03;7.07;;;;;;;;;;5116739;27;20027;-66
2021/12/12 09:09:20;;;;;;;12.43;7.60;;;;;;;;;;5133869;27;20031;-67
2021/12/12 09:11:52;;;;;;;10.13;7.60;;;;;;;;;;5134732;27;20023;-66
2021/12/12 09:14:30;;;;;;;11.23;8.13;;;;;;;;;;5116075;27;20058;-68
2021/12/12 09:17:14;;;;;;;11.17;7.30;;;;;;;;;;5129147;27;20038;-68
2021/12/12 09:19:39;;;;;;;9.97;7.27;;;;;;;;;;5116459;27;20031;-67
2021/12/12 09:22:09;;;;;;;9.00;6.67;;;;;;;;;;5134126;27;20523;-67
2021/12/12 09:24:44;;;;;;;10.40;7.17;;;;;;;;;;5133795;27;20023;-68
2021/12/12 09:27:11;;;;;;;11.30;7.78;;;;;;;;;;5115529;27;20023;-67
2021/12/12 09:29:41;;;;;;;9.90;7.40;;;;;;;;;;5129224;27;20023;-67
2021/12/12 09:32:07;;;;;;;8.93;5.87;;;;;;;;;;5132045;27;20027;-67
2021/12/12 09:34:35;;;;;;;9.48;7.45;;;;;;;;;;5143539;27;20491;-67
2021/12/12 09:37:07;;;;;;;12.20;7.38;;;;;;;;;;5134894;27;20023;-68
2021/12/12 09:39:37;;;;;;;8.88;6.40;;;;;;;;;;5131097;27;20110;-67
2021/12/12 09:42:16;;;;;;;8.27;6.47;;;;;;;;;;5112212;28;20024;-67
2021/12/12 09:44:48;;;;;;;8.85;6.70;;;;;;;;;;5120873;27;20457;-67
2021/12/12 09:47:56;;;;;;;8.82;6.07;;;;;;;;;;5115350;27;20031;-67
2021/12/12 09:53:25;;;;;;;9.10;6.20;;;;;;;;;;5134002;27;20042;-67
2021/12/12 09:55:50;;;;;;;8.68;6.57;;;;;;;;;;5129633;27;20418;-67
2021/12/12 09:58:23;;;;;;;8.20;6.28;;;;;;;;;;5131925;27;20027;-67
2021/12/12 10:00:58;;;;;;;8.40;6.47;;;;;;;;;;5128407;27;20098;-68
2021/12/12 10:03:26;;;;;;;8.10;5.63;;;;;;;;;;5146955;27;20071;-66
2021/12/12 10:05:54;;;;;;;9.98;5.85;;;;;;;;;;5118311;27;20553;-65
2021/12/12 10:08:49;;;;;;;10.05;6.00;;;;;;;;;;5126617;27;20324;-65
2021/12/12 10:11:22;;;;;;;8.40;5.95;;;;;;;;;;5083610;27;20483;-65
2021/12/12 10:13:51;;;;;;;8.38;6.00;;;;;;;;;;5133599;27;20026;-66
2021/12/12 10:16:46;;;;;;;6.68;5.25;;;;;;;;;;5133211;27;20083;-68
2021/12/12 10:19:18;;;;;;;9.15;5.70;;;;;;;;;;5111766;27;20066;-68
2021/12/12 10:22:01;;;;;;;8.88;5.65;;;;;;;;;;5132210;27;20027;-67
2021/12/12 10:24:29;;;;;;;7.78;5.50;;;;;;;;;;5114381;27;20021;-67
2021/12/12 10:27:13;;;;;;;6.47;5.60;;;;;;;;;;5133077;27;20022;-65
2021/12/12 10:29:48;;;;;;;7.38;4.72;;;;;;;;;;5110578;27;20379;-66
2021/12/12 10:32:18;;;;;;;6.05;4.30;;;;;;;;;;5114833;27;20080;-67
2021/12/12 10:34:46;;;;;;;5.32;4.30;;;;;;;;;;5114618;27;20031;-65
2021/12/12 10:37:17;;;;;;;6.57;4.97;;;;;;;;;;5132864;27;20215;-65
2021/12/12 10:39:54;;;;;;;4.70;4.00;;;;;;;;;;5116143;27;20015;-65
2021/12/12 10:42:24;;;;;;;6.60;4.55;;;;;;;;;;5133021;27;20019;-65
2021/12/12 10:44:55;;;;;;;5.72;4.05;;;;;;;;;;5114360;27;20023;-65
2021/12/12 10:47:28;;;;;;;4.97;3.60;;;;;;;;;;5111606;28;20020;-66
2021/12/12 10:50:02;;;;;;;5.40;2.83;;;;;;;;;;5128404;27;20007;-66
2021/12/12 10:52:34;;;;;;;3.08;2.50;;;;;;;;;;5113789;27;20107;-66
2021/12/12 10:55:22;;;;;;;3.83;2.67;;;;;;;;;;5114017;27;20019;-66
2021/12/12 10:58:00;;;;;;;4.10;2.20;;;;;;;;;;5118764;27;20053;-66
2021/12/12 11:00:27;;;;;;;5.13;2.30;;;;;;;;;;5126896;27;20018;-66
2021/12/12 11:03:02;;;;;;;3.97;1.88;;;;;;;;;;5131755;27;20369;-66
2021/12/12 11:05:31;;;;;;;2.63;1.95;;;;;;;;;;5132104;27;20069;-64
2021/12/12 11:08:10;;;;;;;3.72;2.10;;;;;;;;;;5131695;27;20157;-65
2021/12/12 11:10:36;;;;;;;4.15;2.00;;;;;;;;;;5132642;27;20053;-65
2021/12/12 11:13:03;;;;;;;4.00;1.52;;;;;;;;;;5110730;27;20019;-66
2021/12/12 11:15:40;;;;;;;6.25;1.90;;;;;;;;;;5132118;27;20023;-66
2021/12/12 11:18:14;;;;;;;4.10;1.35;;;;;;;;;;5131841;27;20070;-65
2021/12/12 11:20:42;;;;;;;4.38;1.48;;;;;;;;;;5129947;27;20016;-66
2021/12/12 11:23:08;;;;;;;2.97;1.67;;;;;;;;;;5131830;27;20371;-65
2021/12/12 11:25:44;;;;;;;3.03;1.80;;;;;;;;;;5132709;27;20458;-65
2021/12/12 11:28:24;;;;;;;2.42;0.98;;;;;;;;;;5125845;27;20521;-65
2021/12/12 11:30:55;;;;;;;5.75;1.40;;;;;;;;;;5123572;27;20045;-65
2021/12/12 11:33:22;;;;;;;3.97;1.60;;;;;;;;;;5136610;27;20023;-66
2021/12/12 11:35:50;;;;;;;4.95;1.80;;;;;;;;;;5129138;27;20032;-65
2021/12/12 11:38:27;;;;;;;3.08;1.50;;;;;;;;;;5134699;27;20031;-66
2021/12/12 11:40:52;;;;;;;2.85;1.80;;;;;;;;;;5113112;28;20055;-66
2021/12/12 11:43:36;;;;;;;3.80;1.75;;;;;;;;;;5131145;27;20055;-66
2021/12/12 11:46:04;;;;;;;4.22;1.83;;;;;;;;;;5113676;27;20491;-66
2021/12/12 11:48:32;;;;;;;4.18;2.00;;;;;;;;;;5117796;28;20422;-65
2021/12/12 11:50:57;;;;;;;3.63;1.60;;;;;;;;;;5113240;28;20035;-66
2021/12/12 11:53:41;;;;;;;3.70;2.00;;;;;;;;;;5112834;27;20493;-66
2021/12/12 11:56:13;;;;;;;3.65;1.63;;;;;;;;;;5106556;28;20068;-65
2021/12/12 11:58:59;;;;;;;3.58;1.65;;;;;;;;;;5111936;28;20095;-66
2021/12/12 12:01:31;;;;;;;5.35;1.67;;;;;;;;;;5111810;28;20050;-66
2021/12/12 12:04:29;;;;;;;3.53;1.95;;;;;;;;;;5131754;28;20043;-65
2021/12/12 12:06:54;;;;;;;5.25;1.90;;;;;;;;;;5012058;28;20037;-66
2021/12/12 12:09:22;;;;;;;6.43;1.90;;;;;;;;;;5011632;28;20060;-66
2021/12/12 12:12:05;;;;;;;4.78;2.00;;;;;;;;;;5028860;28;20025;-66
2021/12/12 12:14:30;;;;;;;5.70;2.10;;;;;;;;;;5011313;28;20030;-66
2021/12/12 12:17:01;;;;;;;5.90;1.83;;;;;;;;;;5028344;28;20032;-66
2021/12/12 12:19:26;;;;;;;6.22;2.10;;;;;;;;;;5029786;28;20089;-66
2021/12/12 12:22:10;;;;;;;7.07;2.47;;;;;;;;;;5015602;28;20120;-66
2021/12/12 12:24:44;;;;;;;4.68;1.67;;;;;;;;;;5017206;28;20458;-66
2021/12/12 12:27:10;;;;;;;5.17;1.87;;;;;;;;;;5031049;28;20022;-65
2021/12/12 12:29:55;;;;;;;5.55;1.55;;;;;;;;;;5011893;28;20379;-66
2021/12/12 12:32:38;;;;;;;3.50;1.25;;;;;;;;;;5013422;28;20025;-67
2021/12/12 12:35:19;;;;;;;5.75;2.00;;;;;;;;;;5024049;28;20142;-67
2021/12/12 12:38:03;;;;;;;6.43;1.50;;;;;;;;;;5017275;28;20029;-66
2021/12/12 12:40:47;;;;;;;2.28;1.17;;;;;;;;;;5030184;28;20108;-66
2021/12/12 12:43:31;;;;;;;3.88;1.17;;;;;;;;;;5110902;27;20023;-66
2021/12/12 12:46:08;;;;;;;3.35;1.10;;;;;;;;;;5114983;27;20027;-67
2021/12/12 12:48:33;;;;;;;3.22;1.52;;;;;;;;;;5119763;27;20483;-65
2021/12/12 12:51:05;;;;;;;6.70;1.08;;;;;;;;;;5131163;27;20021;-66
2021/12/12 12:53:45;;;;;;;4.20;1.40;;;;;;;;;;5135657;27;20015;-65
2021/12/12 12:56:29;;;;;;;7.45;1.63;;;;;;;;;;5134860;27;20030;-65
2021/12/12 12:58:54;;;;;;;4.25;1.83;;;;;;;;;;5131733;27;20023;-65
2021/12/12 13:01:38;;;;;;;4.78;1.50;;;;;;;;;;5132021;27;20027;-65
2021/12/12 13:04:03;;;;;;;2.90;1.17;;;;;;;;;;5135125;27;20031;-66
2021/12/12 13:06:47;;;;;;;6.18;1.80;;;;;;;;;;5134863;27;20046;-65
2021/12/12 13:09:12;;;;;;;7.88;1.80;;;;;;;;;;5116442;27;20075;-66
2021/12/12 13:11:40;;;;;;;6.55;1.77;;;;;;;;;;5130082;27;20102;-66
2021/12/12 13:14:11;;;;;;;3.53;1.20;;;;;;;;;;5134622;27;20489;-66
2021/12/12 13:16:40;;;;;;;7.43;1.50;;;;;;;;;;5133907;27;20344;-65
2021/12/12 13:19:09;;;;;;;9.73;1.92;;;;;;;;;;5135181;27;20027;-65
2021/12/12 13:21:37;;;;;;;9.45;1.55;;;;;;;;;;5115788;27;20483;-66
2021/12/12 13:24:23;;;;;;;7.05;1.30;;;;;;;;;;5112694;28;20020;-66
2021/12/12 13:27:17;;;;;;;5.32;1.50;;;;;;;;;;5102272;27;20066;-66
2021/12/12 13:30:04;;;;;;;4.82;1.45;;;;;;;;;;5070372;27;20023;-66
2021/12/12 13:32:50;;;;;;;6.38;1.35;;;;;;;;;;5104254;28;20028;-66
2021/12/12 13:35:18;;;;;;;7.00;1.77;;;;;;;;;;5115168;27;20076;-65
2021/12/12 13:37:52;;;;;;;5.72;1.30;;;;;;;;;;5115675;27;20364;-65
2021/12/12 13:40:32;;;;;;;6.72;1.23;;;;;;;;;;5132557;27;20514;-66
2021/12/12 13:43:02;;;;;;;4.85;1.15;;;;;;;;;;5117011;27;20007;-67
2021/12/12 13:45:36;;;;;;;8.65;1.40;;;;;;;;;;5132186;27;20395;-65
2021/12/12 13:48:21;;;;;;;3.58;1.02;;;;;;;;;;5126818;27;20063;-65
2021/12/12 13:51:02;;;;;;;5.95;1.33;;;;;;;;;;5132074;27;20026;-66
2021/12/12 13:53:27;;;;;;;5.80;1.20;;;;;;;;;;5125142;27;20007;-65
2021/12/12 13:55:52;;;;;;;8.66;1.18;;;;;;;;;;5133348;27;20019;-65
2021/12/12 13:58:23;;;;;;;6.53;1.13;;;;;;;;;;5123486;27;20470;-65
2021/12/12 14:00:57;;;;;;;4.50;1.00;;;;;;;;;;5115835;27;20027;-65
2021/12/12 14:03:32;;;;;;;5.28;1.38;;;;;;;;;;5111671;27;20074;-65
2021/12/12 14:06:01;;;;;;;5.35;1.17;;;;;;;;;;5128021;27;20062;-66
2021/12/12 14:08:28;;;;;;;5.35;1.23;;;;;;;;;;5131327;27;20022;-65
2021/12/12 14:10:58;;;;;;;6.28;1.65;;;;;;;;;;5131871;27;20027;-66
2021/12/12 14:13:33;;;;;;;7.25;2.45;;;;;;;;;;5132960;27;20063;-66
2021/12/12 14:16:13;;;;;;;8.15;1.50;;;;;;;;;;5131970;27;20034;-65
2021/12/12 14:18:43;;;;;;;4.75;0.73;;;;;;;;;;5132633;27;20087;-65
2021/12/12 14:21:10;;;;;;;2.60;1.20;;;;;;;;;;5133078;27;20023;-66
2021/12/12 14:23:37;;;;;;;4.05;0.98;;;;;;;;;;5132877;27;20051;-66
2021/12/12 14:26:14;;;;;;;4.82;1.20;;;;;;;;;;5113837;27;20019;-66
2021/12/12 14:28:41;;;;;;;7.13;1.33;;;;;;;;;;5130994;27;20035;-66
2021/12/12 14:31:09;;;;;;;6.47;1.13;;;;;;;;;;5111965;27;20030;-65
2021/12/12 14:33:39;;;;;;;5.63;1.10;;;;;;;;;;5132037;27;20071;-66
2021/12/12 14:36:12;;;;;;;8.00;1.17;;;;;;;;;;5131624;27;20494;-65
2021/12/12 14:38:37;;;;;;;5.47;1.65;;;;;;;;;;5119202;27;20495;-65
2021/12/12 14:41:04;;;;;;;5.50;0.90;;;;;;;;;;5133168;27;20047;-66
2021/12/12 14:43:32;;;;;;;8.93;2.08;;;;;;;;;;5132020;27;20435;-66
2021/12/12 14:46:00;;;;;;;4.32;0.70;;;;;;;;;;5132213;27;20128;-67
2021/12/12 14:48:36;;;;;;;6.93;1.83;;;;;;;;;;5147438;27;20027;-66
2021/12/12 14:51:08;;;;;;;6.20;1.23;;;;;;;;;;5114373;27;20023;-66
2021/12/12 14:53:37;;;;;;;3.42;0.60;;;;;;;;;;5114484;27;20497;-66
2021/12/12 14:56:07;;;;;;;6.18;1.05;;;;;;;;;;5114331;27;20023;-66
2021/12/12 14:58:42;;;;;;;7.28;1.20;;;;;;;;;;5113986;27;20096;-66
2021/12/12 15:01:33;;;;;;;5.13;1.42;;;;;;;;;;5129388;27;20019;-66
2021/12/12 15:04:02;;;;;;;3.78;1.05;;;;;;;;;;5107373;28;20118;-66
2021/12/12 15:06:41;;;;;;;4.70;0.98;;;;;;;;;;5112110;28;20046;-67